createdAt,value
2019-02-14T00:00:57.979Z,-3.70
2019-02-14T00:03:28.081Z,-3.80
2019-02-14T00:05:58.233Z,-4.00
2019-02-14T00:08:28.331Z,-4.10
2019-02-14T00:10:58.582Z,-4.00
2019-02-14T00:13:29.093Z,-3.90
2019-02-14T00:15:59.272Z,-3.80
2019-02-14T00:18:29.485Z,-3.90
2019-02-14T00:20:59.984Z,-4.10
2019-02-14T00:23:30.133Z,-4.10
2019-02-14T00:26:00.279Z,-4.00
2019-02-14T00:28:30.530Z,-4.10
2019-02-14T00:31:02.252Z,-4.10
2019-02-14T00:33:32.380Z,-4.10
2019-02-14T00:36:04.055Z,-4.20
2019-02-14T00:38:34.151Z,-4.10
2019-02-14T00:41:04.290Z,-4.20
2019-02-14T00:43:34.376Z,-4.10
2019-02-14T00:46:04.615Z,-4.10
2019-02-14T00:48:36.164Z,-4.20
2019-02-14T00:51:06.307Z,-4.20
2019-02-14T00:53:36.428Z,-4.00
2019-02-14T00:58:53.155Z,-3.90
2019-02-14T01:01:23.685Z,-4.00
2019-02-14T01:03:53.861Z,-3.90
2019-02-14T01:06:24.020Z,-3.80
2019-02-14T01:08:54.143Z,-3.70
2019-02-14T01:11:24.407Z,-3.60
2019-02-14T01:13:54.880Z,-3.70
2019-02-14T01:16:25.071Z,-3.80
2019-02-14T01:18:55.206Z,-3.90
2019-02-14T01:21:27.176Z,-3.70
2019-02-14T01:23:57.411Z,-3.60
2019-02-14T01:26:27.935Z,-3.60
2019-02-14T01:28:58.343Z,-3.60
2019-02-14T01:31:29.101Z,-3.70
2019-02-14T01:33:59.250Z,-3.70
2019-02-14T01:36:29.347Z,-3.70
2019-02-14T01:38:59.832Z,-3.60
2019-02-14T01:41:29.977Z,-3.50
2019-02-14T01:44:00.213Z,-3.50
2019-02-14T01:46:30.450Z,-3.40
2019-02-14T01:49:01.102Z,-3.20
2019-02-14T01:51:31.258Z,-3.20
2019-02-14T01:54:01.376Z,-3.20
2019-02-14T01:56:31.534Z,-3.20
2019-02-14T01:59:01.971Z,-3.20
2019-02-14T02:01:32.094Z,-3.30
2019-02-14T02:04:02.330Z,-3.40
2019-02-14T02:06:32.474Z,-3.50
2019-02-14T02:09:04.469Z,-3.60
2019-02-14T02:11:36.403Z,-3.60
2019-02-14T02:14:06.552Z,-3.30
2019-02-14T02:16:36.939Z,-3.20
2019-02-14T02:19:07.386Z,-3.10
2019-02-14T02:21:37.497Z,-3.00
2019-02-14T02:24:07.847Z,-3.00
2019-02-14T02:26:38.164Z,-3.00
2019-02-14T02:29:08.271Z,-3.00
2019-02-14T02:31:38.360Z,-3.10
2019-02-14T02:34:08.538Z,-3.10
2019-02-14T02:36:38.889Z,-3.10
2019-02-14T02:39:09.452Z,-3.20
2019-02-14T02:41:39.683Z,-3.40
2019-02-14T02:44:10.166Z,-3.30
2019-02-14T02:46:40.319Z,-2.80
2019-02-14T02:49:10.477Z,-3.00
2019-02-14T02:51:42.103Z,-3.20
2019-02-14T02:54:12.409Z,-3.40
2019-02-14T02:56:42.559Z,-3.50
2019-02-14T02:59:14.209Z,-3.60
2019-02-14T03:01:44.707Z,-3.60
2019-02-14T03:04:14.852Z,-3.70
2019-02-14T03:06:45.232Z,-3.60
2019-02-14T03:09:15.672Z,-3.60
2019-02-14T03:11:45.812Z,-3.70
2019-02-14T03:14:17.657Z,-3.60
2019-02-14T03:16:47.731Z,-3.60
2019-02-14T03:19:19.361Z,-3.70
2019-02-14T03:21:49.574Z,-3.80
2019-02-14T03:24:19.750Z,-3.90
2019-02-14T03:26:51.575Z,-4.00
2019-02-14T03:29:21.664Z,-4.10
2019-02-14T03:31:52.213Z,-4.00
2019-02-14T03:34:22.480Z,-3.90
2019-02-14T03:36:53.710Z,-3.90
2019-02-14T03:39:23.827Z,-4.10
2019-02-14T03:41:54.208Z,-4.00
2019-02-14T03:44:24.662Z,-4.00
2019-02-14T03:46:54.755Z,-4.00
2019-02-14T03:49:24.924Z,-3.90
2019-02-14T03:51:55.299Z,-3.90
2019-02-14T03:54:25.510Z,-3.90
2019-02-14T03:56:55.615Z,-3.90
2019-02-14T03:59:25.765Z,-4.00
2019-02-14T04:01:55.866Z,-4.00
2019-02-14T04:04:26.002Z,-3.80
2019-02-14T04:06:56.348Z,-3.80
2019-02-14T04:09:26.741Z,-3.80
2019-02-14T04:11:56.891Z,-3.70
2019-02-14T04:14:27.086Z,-3.60
2019-02-14T04:16:57.534Z,-3.70
2019-02-14T04:19:28.861Z,-3.60
2019-02-14T04:21:59.113Z,-3.70
2019-02-14T04:24:29.501Z,-3.70
2019-02-14T04:26:59.742Z,-3.80
2019-02-14T04:29:29.821Z,-3.80
2019-02-14T04:31:59.996Z,-3.70
2019-02-14T04:34:30.164Z,-3.80
2019-02-14T04:37:00.538Z,-3.80
2019-02-14T04:39:30.735Z,-3.70
2019-02-14T04:42:00.800Z,-3.70
2019-02-14T04:44:30.917Z,-3.60
2019-02-14T04:47:00.990Z,-3.50
2019-02-14T04:49:31.171Z,-3.40
2019-02-14T04:52:01.316Z,-3.40
2019-02-14T04:54:31.797Z,-3.40
2019-02-14T04:57:01.875Z,-3.40
2019-02-14T04:59:31.978Z,-3.40
2019-02-14T05:02:02.120Z,-3.40
2019-02-14T05:04:32.217Z,-3.40
2019-02-14T05:07:02.665Z,-3.30
2019-02-14T05:09:34.048Z,-3.30
2019-02-14T05:12:04.250Z,-3.30
2019-02-14T05:14:34.395Z,-3.20
2019-02-14T05:17:04.810Z,-3.20
2019-02-14T05:19:45.252Z,-3.10
2019-02-14T05:22:15.681Z,-2.90
2019-02-14T05:24:45.853Z,-2.90
2019-02-14T05:27:16.236Z,-2.80
2019-02-14T05:29:46.391Z,-2.60
2019-02-14T05:32:16.547Z,-2.60
2019-02-14T05:34:46.969Z,-2.50
2019-02-14T05:37:17.052Z,-2.50
2019-02-14T05:39:47.163Z,-2.60
2019-02-14T05:42:17.265Z,-2.60
2019-02-14T05:44:47.476Z,-2.60
2019-02-14T05:47:18.147Z,-2.60
2019-02-14T05:49:48.265Z,-2.60
2019-02-14T05:52:18.490Z,-2.80
2019-02-14T05:54:48.889Z,-2.80
2019-02-14T05:57:20.942Z,-2.50
2019-02-14T05:59:51.062Z,-2.50
2019-02-14T06:02:21.315Z,-2.60
2019-02-14T06:04:51.571Z,-2.70
2019-02-14T06:07:22.001Z,-2.70
2019-02-14T06:09:52.257Z,-2.60
2019-02-14T06:12:22.405Z,-2.70
2019-02-14T06:14:52.632Z,-2.80
2019-02-14T06:17:24.316Z,-2.80
2019-02-14T06:19:54.512Z,-2.90
2019-02-14T06:22:24.739Z,-2.90
2019-02-14T06:24:55.066Z,-2.50
2019-02-14T06:27:25.354Z,-2.60
2019-02-14T06:29:55.527Z,-2.70
2019-02-14T06:32:26.042Z,-2.70
2019-02-14T06:34:56.266Z,-2.70
2019-02-14T06:37:27.944Z,-2.70
2019-02-14T06:39:58.490Z,-2.60
2019-02-14T06:42:28.645Z,-2.50
2019-02-14T06:44:59.152Z,-2.40
2019-02-14T06:47:29.437Z,-2.60
2019-02-14T06:49:59.556Z,-2.70
2019-02-14T06:52:29.809Z,-2.70
2019-02-14T06:55:00.391Z,-2.60
2019-02-14T06:57:30.503Z,-2.60
2019-02-14T07:00:00.684Z,-2.50
2019-02-14T07:02:31.460Z,-2.20
2019-02-14T07:05:01.582Z,-2.00
2019-02-14T07:07:31.831Z,-1.80
2019-02-14T07:10:02.222Z,-1.80
2019-02-14T07:12:32.373Z,-1.80
2019-02-14T07:15:02.531Z,-1.70
2019-02-14T07:17:32.686Z,-1.20
2019-02-14T07:20:02.894Z,-0.30
2019-02-14T07:22:33.337Z,-1.00
2019-02-14T07:25:03.460Z,-1.10
2019-02-14T07:27:34.621Z,-1.10
2019-02-14T07:30:06.425Z,-1.00
2019-02-14T07:32:36.757Z,-1.00
2019-02-14T07:35:08.725Z,-1.00
2019-02-14T07:37:39.872Z,-0.90
2019-02-14T07:40:11.534Z,-0.90
2019-02-14T07:42:41.763Z,-0.90
2019-02-14T07:45:12.988Z,-0.80
2019-02-14T07:47:43.126Z,-0.80
2019-02-14T07:50:13.980Z,-0.70
2019-02-14T07:52:44.434Z,-0.70
2019-02-14T07:55:15.049Z,-0.60
2019-02-14T07:57:45.637Z,-0.50
2019-02-14T08:00:18.851Z,-0.50
2019-02-14T08:02:48.955Z,-0.40
2019-02-14T08:05:19.470Z,-0.40
2019-02-14T08:07:49.634Z,-0.40
2019-02-14T08:10:20.126Z,-0.30
2019-02-14T08:12:50.467Z,-0.30
2019-02-14T08:15:20.727Z,-0.20
2019-02-14T08:17:50.911Z,-0.20
2019-02-14T08:20:21.022Z,-0.20
2019-02-14T08:22:51.096Z,0.00
2019-02-14T08:25:21.280Z,0.10
2019-02-14T08:27:51.635Z,0.20
2019-02-14T08:30:22.833Z,0.30
2019-02-14T08:32:52.965Z,0.20
2019-02-14T08:35:23.133Z,0.00
2019-02-14T08:37:54.032Z,-0.10
2019-02-14T08:40:25.082Z,-0.10
2019-02-14T08:42:55.701Z,0.10
2019-02-14T08:45:25.745Z,0.30
2019-02-14T08:47:55.896Z,0.40
2019-02-14T08:50:26.084Z,0.60
2019-02-14T08:52:56.567Z,0.50
2019-02-14T08:55:26.731Z,0.60
2019-02-14T08:57:57.038Z,0.70
2019-02-14T09:00:27.072Z,0.80
2019-02-14T09:02:57.166Z,0.90
2019-02-14T09:05:27.247Z,1.00
2019-02-14T09:07:57.331Z,1.10
2019-02-14T09:10:27.561Z,1.20
2019-02-14T09:12:58.329Z,1.30
2019-02-14T09:15:28.678Z,1.50
2019-02-14T09:17:58.865Z,4.00
2019-02-14T09:20:28.998Z,4.70
2019-02-14T09:22:59.318Z,2.50
2019-02-14T09:25:30.866Z,2.10
2019-02-14T09:28:01.123Z,2.20
2019-02-14T09:30:31.249Z,2.30
2019-02-14T09:33:01.567Z,2.40
2019-02-14T09:35:31.784Z,2.60
2019-02-14T09:38:03.693Z,2.70
2019-02-14T09:40:33.909Z,2.70
2019-02-14T09:43:04.114Z,3.00
2019-02-14T09:45:34.285Z,3.10
2019-02-14T09:48:04.735Z,3.40
2019-02-14T09:50:34.925Z,3.40
2019-02-14T09:53:05.095Z,3.60
2019-02-14T09:55:35.272Z,3.60
2019-02-14T09:58:05.405Z,3.80
2019-02-14T10:00:35.875Z,3.80
2019-02-14T10:03:05.995Z,3.90
2019-02-14T10:05:36.156Z,4.00
2019-02-14T10:08:12.498Z,4.00
2019-02-14T10:10:38.125Z,4.00
2019-02-14T10:13:09.385Z,4.00
2019-02-14T10:15:40.963Z,4.10
2019-02-14T10:18:11.206Z,4.20
2019-02-14T10:20:41.587Z,4.40
2019-02-14T10:23:12.420Z,4.40
2019-02-14T10:25:42.507Z,4.40
2019-02-14T10:28:12.700Z,4.30
2019-02-14T10:30:43.084Z,4.30
2019-02-14T10:33:14.147Z,4.40
2019-02-14T10:35:44.330Z,4.50
2019-02-14T10:38:22.010Z,4.80
2019-02-14T10:40:46.142Z,5.00
2019-02-14T10:43:16.255Z,5.30
2019-02-14T10:45:46.354Z,5.50
2019-02-14T10:48:16.663Z,5.50
2019-02-14T10:50:46.807Z,5.80
2019-02-14T10:53:16.973Z,5.90
2019-02-14T10:55:47.271Z,6.30
2019-02-14T10:58:17.464Z,6.50
2019-02-14T11:00:47.627Z,6.70
2019-02-14T11:03:17.831Z,6.90
2019-02-14T11:05:48.153Z,6.80
2019-02-14T11:08:18.371Z,6.80
2019-02-14T11:10:50.337Z,6.70
2019-02-14T11:13:20.418Z,6.80
2019-02-14T11:15:51.658Z,6.80
2019-02-14T11:18:22.457Z,6.90
2019-02-14T11:20:52.679Z,7.20
2019-02-14T11:23:22.753Z,7.50
2019-02-14T11:25:52.891Z,7.80
2019-02-14T11:28:23.056Z,7.90
2019-02-14T11:30:53.407Z,8.20
2019-02-14T11:33:23.657Z,8.60
2019-02-14T11:35:53.875Z,9.00
2019-02-14T11:38:24.506Z,9.20
2019-02-14T11:40:54.657Z,9.30
2019-02-14T11:43:24.855Z,9.40
2019-02-14T11:45:55.343Z,9.70
2019-02-14T11:48:25.498Z,9.70
2019-02-14T11:50:55.651Z,9.60
2019-02-14T11:53:25.859Z,9.80
2019-02-14T11:55:57.099Z,10.30
2019-02-14T11:58:27.411Z,10.50
2019-02-14T12:00:57.600Z,10.50
2019-02-14T12:03:27.691Z,10.20
2019-02-14T12:05:57.764Z,10.30
2019-02-14T12:08:27.851Z,10.30
2019-02-14T12:10:58.040Z,10.80
2019-02-14T12:13:30.152Z,10.50
2019-02-14T12:16:00.458Z,11.00
2019-02-14T12:18:30.548Z,11.20
2019-02-14T12:21:00.738Z,10.70
2019-02-14T12:23:30.957Z,10.50
2019-02-14T12:26:01.301Z,11.00
2019-02-14T12:28:31.902Z,11.40
2019-02-14T12:31:02.141Z,11.10
2019-02-14T12:33:33.625Z,11.00
2019-02-14T12:36:03.729Z,11.40
2019-02-14T12:38:33.974Z,12.10
2019-02-14T12:41:05.146Z,12.20
2019-02-14T12:43:35.516Z,12.50
2019-02-14T12:46:05.598Z,12.40
2019-02-14T12:48:35.767Z,12.80
2019-02-14T12:51:05.928Z,12.50
2019-02-14T12:53:36.121Z,12.60
2019-02-14T12:56:06.336Z,12.40
2019-02-14T12:58:36.787Z,12.70
2019-02-14T13:01:06.921Z,12.90
2019-02-14T13:03:37.077Z,12.90
2019-02-14T13:06:07.281Z,13.10
2019-02-14T13:08:39.723Z,12.70
2019-02-14T13:11:10.141Z,12.90
2019-02-14T13:13:40.336Z,13.10
2019-02-14T13:16:10.955Z,13.60
2019-02-14T13:18:41.198Z,12.90
2019-02-14T13:21:11.422Z,13.50
2019-02-14T13:23:41.703Z,14.60
2019-02-14T13:26:12.123Z,14.80
2019-02-14T13:28:42.296Z,14.80
2019-02-14T13:31:12.535Z,15.50
2019-02-14T13:33:42.848Z,16.10
2019-02-14T13:36:13.039Z,16.70
2019-02-14T13:38:44.229Z,16.50
2019-02-14T13:41:14.346Z,14.50
2019-02-14T13:43:46.042Z,13.70
2019-02-14T13:46:16.589Z,13.10
2019-02-14T13:48:46.966Z,14.20
2019-02-14T13:51:17.093Z,13.70
2019-02-14T13:53:47.499Z,13.30
2019-02-14T13:56:17.930Z,13.50
2019-02-14T13:58:48.139Z,14.60
2019-02-14T14:01:18.404Z,15.20
2019-02-14T14:03:48.595Z,16.30
2019-02-14T14:06:18.921Z,16.40
2019-02-14T14:08:49.026Z,16.50
2019-02-14T14:11:19.451Z,16.30
2019-02-14T14:13:49.551Z,16.50
2019-02-14T14:16:20.113Z,17.20
2019-02-14T14:18:50.283Z,17.60
2019-02-14T14:21:20.481Z,17.60
2019-02-14T14:23:50.577Z,17.60
2019-02-14T14:26:21.154Z,17.30
2019-02-14T14:28:51.436Z,17.20
2019-02-14T14:31:21.786Z,17.40
2019-02-14T14:33:52.100Z,18.00
2019-02-14T14:36:22.281Z,18.80
2019-02-14T14:38:58.727Z,18.80
2019-02-14T14:41:29.188Z,18.80
2019-02-14T14:44:08.542Z,18.60
2019-02-14T14:47:12.842Z,19.00
2019-02-14T14:49:43.135Z,18.80
2019-02-14T14:52:13.278Z,18.60
2019-02-14T14:54:43.564Z,18.40
2019-02-14T14:57:13.735Z,18.00
2019-02-14T14:59:44.298Z,17.90
2019-02-14T15:02:14.532Z,17.90
2019-02-14T15:04:44.761Z,18.00
2019-02-14T15:07:15.303Z,17.40
2019-02-14T15:09:46.876Z,17.10
2019-02-14T15:12:17.431Z,17.10
2019-02-14T15:14:47.778Z,16.60
2019-02-14T15:17:18.238Z,16.50
2019-02-14T15:19:48.419Z,16.30
2019-02-14T15:22:18.809Z,16.40
2019-02-14T15:24:50.300Z,16.00
2019-02-14T15:27:20.633Z,16.30
2019-02-14T15:29:50.823Z,16.60
2019-02-14T15:32:21.255Z,16.60
2019-02-14T15:34:51.352Z,16.30
2019-02-14T15:37:21.500Z,16.40
2019-02-14T15:39:51.909Z,16.50
2019-02-14T15:42:23.028Z,16.70
2019-02-14T15:44:53.259Z,16.50
2019-02-14T15:47:23.510Z,15.90
2019-02-14T15:49:53.703Z,15.80
2019-02-14T15:52:23.932Z,15.40
2019-02-14T15:54:55.684Z,15.10
2019-02-14T15:57:26.369Z,15.30
2019-02-14T15:59:56.563Z,15.90
2019-02-14T16:02:28.498Z,16.40
2019-02-14T16:04:58.557Z,15.90
2019-02-14T16:07:28.741Z,15.40
2019-02-14T16:10:00.470Z,14.60
2019-02-14T16:12:30.809Z,14.10
2019-02-14T16:15:01.152Z,14.00
2019-02-14T16:17:33.154Z,14.40
2019-02-14T16:20:04.800Z,14.40
2019-02-14T16:22:35.031Z,14.10
2019-02-14T16:25:06.921Z,13.50
2019-02-14T16:27:37.462Z,12.20
2019-02-14T16:30:10.602Z,11.70
2019-02-14T16:32:40.779Z,11.70
2019-02-14T16:35:10.980Z,11.90
2019-02-14T16:37:41.455Z,11.60
2019-02-14T16:40:11.681Z,10.90
2019-02-14T16:42:43.574Z,9.60
2019-02-14T16:45:13.654Z,8.90
2019-02-14T16:47:43.901Z,8.30
2019-02-14T16:50:14.079Z,7.70
2019-02-14T16:52:44.293Z,7.00
2019-02-14T16:55:14.636Z,6.70
2019-02-14T16:57:44.801Z,6.50
2019-02-14T17:00:14.879Z,6.30
2019-02-14T17:02:45.130Z,6.00
2019-02-14T17:05:15.672Z,5.90
2019-02-14T17:07:45.898Z,5.70
2019-02-14T17:10:17.107Z,5.70
2019-02-14T17:12:47.279Z,5.60
2019-02-14T17:15:17.462Z,5.60
2019-02-14T17:17:47.623Z,5.40
2019-02-14T17:20:17.780Z,5.20
2019-02-14T17:22:47.949Z,5.10
2019-02-14T17:25:18.422Z,4.90
2019-02-14T17:27:48.665Z,4.50
2019-02-14T17:30:18.874Z,3.80
2019-02-14T17:32:48.996Z,3.50
2019-02-14T17:35:19.086Z,3.50
2019-02-14T17:37:49.249Z,3.40
2019-02-14T17:40:19.869Z,3.50
2019-02-14T17:42:50.101Z,3.70
2019-02-14T17:45:20.208Z,4.00
2019-02-14T17:47:50.320Z,3.80
2019-02-14T17:50:21.153Z,4.20
2019-02-14T17:52:51.271Z,4.10
2019-02-14T17:55:21.429Z,3.70
2019-02-14T17:57:51.761Z,3.40
2019-02-14T18:00:21.761Z,3.30
2019-02-14T18:02:51.979Z,3.20
2019-02-14T18:05:22.191Z,2.80
2019-02-14T18:07:53.775Z,2.40
2019-02-14T18:10:25.086Z,2.10
2019-02-14T18:12:56.743Z,2.10
2019-02-14T18:15:26.771Z,2.20
2019-02-14T18:17:56.907Z,2.00
2019-02-14T18:20:27.227Z,1.70
2019-02-14T18:22:57.384Z,1.40
2019-02-14T18:25:27.548Z,1.30
2019-02-14T18:27:58.017Z,1.30
2019-02-14T18:30:28.060Z,1.40
2019-02-14T18:32:58.178Z,1.40
2019-02-14T18:35:28.396Z,1.30
2019-02-14T18:37:58.561Z,1.20
2019-02-14T18:40:29.226Z,1.20
2019-02-14T18:42:59.516Z,1.20
2019-02-14T18:45:29.795Z,1.20
2019-02-14T18:48:01.535Z,1.00
2019-02-14T18:50:32.103Z,0.90
2019-02-14T18:53:02.883Z,0.80
2019-02-14T18:55:33.046Z,0.80
2019-02-14T18:58:03.388Z,0.70
2019-02-14T19:00:33.521Z,0.70
2019-02-14T19:03:03.795Z,0.70
2019-02-14T19:05:34.080Z,0.60
2019-02-14T19:08:04.418Z,0.60
2019-02-14T19:10:34.695Z,0.60
2019-02-14T19:13:05.265Z,0.60
2019-02-14T19:15:35.488Z,0.60
2019-02-14T19:18:07.408Z,0.50
2019-02-14T19:20:37.660Z,0.40
2019-02-14T19:23:07.749Z,0.40
2019-02-14T19:25:38.232Z,0.40
2019-02-14T19:28:08.407Z,0.30
2019-02-14T19:30:38.467Z,0.30
2019-02-14T19:33:08.666Z,0.20
2019-02-14T19:35:38.912Z,-0.10
2019-02-14T19:38:10.364Z,-0.40
2019-02-14T19:40:40.556Z,-0.60
2019-02-14T19:43:11.115Z,-0.80
2019-02-14T19:45:41.245Z,-0.80
2019-02-14T19:48:11.395Z,-0.50
2019-02-14T19:50:41.533Z,-0.30
2019-02-14T19:53:11.752Z,-0.30
2019-02-14T19:55:42.133Z,-0.20
2019-02-14T19:58:12.547Z,-0.10
2019-02-14T20:00:42.716Z,-0.10
2019-02-14T20:03:12.902Z,-0.10
2019-02-14T20:05:43.415Z,0.00
2019-02-14T20:08:13.696Z,0.10
2019-02-14T20:10:44.147Z,0.10
2019-02-14T20:13:14.491Z,0.10
2019-02-14T20:15:44.624Z,-0.10
2019-02-14T20:18:14.866Z,-0.40
2019-02-14T20:24:10.414Z,-0.80
2019-02-14T20:26:40.764Z,-1.00
2019-02-14T20:29:10.908Z,-1.00
2019-02-14T20:31:41.408Z,-0.80
2019-02-14T20:34:11.665Z,-0.80
2019-02-14T20:36:41.885Z,-0.90
2019-02-14T20:39:12.372Z,-0.90
2019-02-14T20:41:46.728Z,-0.80
2019-02-14T20:44:23.205Z,-0.60
2019-02-14T20:46:58.381Z,-0.50
2019-02-14T20:49:28.569Z,-0.50
2019-02-14T20:51:58.711Z,-0.50
2019-02-14T20:54:31.363Z,-0.50
2019-02-14T20:57:01.653Z,-0.60
2019-02-14T20:59:31.896Z,-0.60
2019-02-14T21:02:02.018Z,-0.70
2019-02-14T21:04:32.424Z,-0.70
2019-02-14T21:07:02.561Z,-0.80
2019-02-14T21:09:32.795Z,-0.80
2019-02-14T21:12:03.156Z,-0.80
2019-02-14T21:14:33.634Z,-0.90
2019-02-14T21:17:03.813Z,-0.90
2019-02-14T21:19:34.125Z,-0.90
2019-02-14T21:22:04.829Z,-0.90
2019-02-14T21:24:35.055Z,-0.90
2019-02-14T21:27:05.774Z,-1.00
2019-02-14T21:29:35.965Z,-1.00
2019-02-14T21:32:06.174Z,-0.90
2019-02-14T21:34:37.733Z,-0.90
2019-02-14T21:37:08.076Z,-1.00
2019-02-14T21:39:39.446Z,-1.00
2019-02-14T21:42:20.152Z,-1.00
2019-02-14T21:44:42.713Z,-1.10
2019-02-14T21:47:13.008Z,-1.10
2019-02-14T21:49:45.786Z,-1.10
2019-02-14T21:52:16.989Z,-1.10
2019-02-14T21:54:47.181Z,-1.20
2019-02-14T21:57:17.695Z,-1.20
2019-02-14T21:59:48.162Z,-1.20
2019-02-14T22:02:18.704Z,-1.30
2019-02-14T22:04:49.287Z,-1.40
2019-02-14T22:07:19.693Z,-1.50
2019-02-14T22:09:49.910Z,-1.50
2019-02-14T22:12:38.461Z,-1.60
2019-02-14T22:14:51.995Z,-1.80
2019-02-14T22:17:22.803Z,-1.80
2019-02-14T22:19:53.132Z,-1.80
2019-02-14T22:22:23.515Z,-1.80
2019-02-14T22:24:53.929Z,-1.70
2019-02-14T22:27:24.116Z,-1.70
2019-02-14T22:29:54.450Z,-1.70
2019-02-14T22:32:24.880Z,-1.60
2019-02-14T22:34:55.028Z,-1.60
2019-02-14T22:37:25.211Z,-1.70
2019-02-14T22:39:55.360Z,-1.70
2019-02-14T22:42:25.642Z,-1.70
2019-02-14T22:44:56.026Z,-1.70
2019-02-14T22:47:26.161Z,-1.70
2019-02-14T22:49:56.332Z,-1.80
2019-02-14T22:52:26.787Z,-1.90
2019-02-14T22:54:57.005Z,-2.00
2019-02-14T22:57:27.164Z,-1.90
2019-02-14T22:59:57.350Z,-1.90
2019-02-14T23:02:27.537Z,-1.80
2019-02-14T23:04:57.954Z,-1.80
2019-02-14T23:07:28.287Z,-1.80
2019-02-14T23:09:58.360Z,-2.00
2019-02-14T23:12:28.445Z,-2.00
2019-02-14T23:15:00.318Z,-2.10
2019-02-14T23:17:31.218Z,-2.10
2019-02-14T23:20:01.453Z,-2.10
2019-02-14T23:22:33.129Z,-2.20
2019-02-14T23:25:03.295Z,-2.30
2019-02-14T23:27:34.518Z,-2.30
2019-02-14T23:30:05.250Z,-2.50
2019-02-14T23:32:35.377Z,-2.60
2019-02-14T23:35:08.838Z,-2.60
2019-02-14T23:37:41.681Z,-2.70
2019-02-14T23:40:44.629Z,-2.70
2019-02-14T23:43:16.142Z,-2.80
2019-02-14T23:45:47.783Z,-2.80
2019-02-14T23:48:18.325Z,-3.00
2019-02-14T23:50:48.522Z,-3.00
2019-02-14T23:53:18.637Z,-3.00
2019-02-14T23:55:50.426Z,-3.00
2019-02-14T23:58:20.786Z,-2.90
